Time;durP1;ratioP1;P1;durP2;ratioP2;P2;SDS_P1;SDS_P2;PMS_P1;PMS_P2;Temp;Humidity;BMP_temperature;BMP_pressure;BME280_temperature;BME280_humidity;BME280_pressure;Samples;Min_cycle;Max_cycle;Signal;HPM_P1;HPM_P2
2022/05/16 00:01:20;;;;;;;;;;;;;;;19.41;47.07;100085.06;4408992;32;20608;-84
2022/05/16 00:03:47;;;;;;;;;;;;;;;19.47;46.49;100095.47;4398526;32;20370;-83
2022/05/16 00:06:14;;;;;;;;;;;;;;;19.47;47.18;100094.63;4398824;32;20023;-85
2022/05/16 00:08:41;;;;;;;;;;;;;;;19.45;47.25;100102.50;4397911;32;19990;-82
2022/05/16 00:11:09;;;;;;;;;;;;;;;19.28;47.67;100100.16;4397370;32;20381;-83
2022/05/16 00:13:36;;;;;;;;;;;;;;;19.48;46.87;100091.97;4398400;32;20410;-84
2022/05/16 00:16:03;;;;;;;;;;;;;;;19.50;47.07;100095.44;4397084;32;19993;-83
2022/05/16 00:18:32;;;;;;;;;;;;;;;19.42;47.54;100102.56;4397453;32;20013;-87
2022/05/16 00:20:59;;;;;;;;;;;;;;;19.12;48.34;100093.41;4398415;32;19988;-83
2022/05/16 00:23:26;;;;;;;;;;;;;;;19.14;48.09;100093.38;4398349;32;20363;-83
2022/05/16 00:25:53;;;;;;;;;;;;;;;19.14;47.93;100094.22;4399010;32;20036;-83
2022/05/16 00:28:19;;;;;;;;;;;;;;;19.22;47.58;100091.50;4398813;32;20001;-84
2022/05/16 00:30:46;;;;;;;;;;;;;;;19.27;46.63;100092.28;4399542;32;19970;-83
2022/05/16 00:33:14;;;;;;;;;;;;;;;19.35;46.32;100090.41;4400017;32;19983;-84
2022/05/16 00:35:40;;;;;;;;;;;;;;;19.40;46.97;100098.22;4380782;32;20004;-87
2022/05/16 00:38:07;;;;;;;;;;;;;;;19.42;47.02;100092.06;4400616;32;19990;-83
2022/05/16 00:40:34;;;;;;;;;;;;;;;19.51;47.55;100102.41;4400378;32;19970;-82
2022/05/16 00:43:02;;;;;;;;;;;;;;;19.43;47.58;100104.31;4400048;32;19993;-82
2022/05/16 00:45:29;;;;;;;;;;;;;;;19.20;48.47;100103.78;4401062;32;19982;-82
2022/05/16 00:47:56;;;;;;;;;;;;;;;19.09;48.89;100095.22;4399909;32;20299;-83
2022/05/16 00:50:23;;;;;;;;;;;;;;;19.15;48.52;100108.25;4400438;32;20029;-83
2022/05/16 00:52:50;;;;;;;;;;;;;;;19.05;48.50;100097.87;4387081;32;20433;-83
2022/05/16 00:55:30;;;;;;;;;;;;;;;19.23;47.97;100106.34;4399723;32;20002;-83
2022/05/16 00:57:58;;;;;;;;;;;;;;;19.16;47.84;100104.72;4400181;32;20048;-83
2022/05/16 01:00:26;;;;;;;;;;;;;;;19.03;48.08;100093.53;4399145;32;20274;-82
2022/05/16 01:05:43;;;;;;;;;;;;;;;19.17;47.73;100106.44;4394928;32;19978;-87
2022/05/16 01:08:28;;;;;;;;;;;;;;;19.08;47.88;100098.69;4400112;32;20415;-83
2022/05/16 01:10:56;;;;;;;;;;;;;;;19.16;47.31;100104.72;4397259;32;20013;-82
2022/05/16 01:13:24;;;;;;;;;;;;;;;19.09;47.92;100110.97;4400091;32;19996;-83
2022/05/16 01:15:51;;;;;;;;;;;;;;;18.93;48.03;100112.94;4399799;32;20019;-82
2022/05/16 01:18:19;;;;;;;;;;;;;;;19.14;48.00;100114.38;4397964;32;20011;-82
2022/05/16 01:20:52;;;;;;;;;;;;;;;18.95;48.27;100119.91;4397464;32;19993;-82
2022/05/16 01:23:20;;;;;;;;;;;;;;;18.98;48.00;100114.56;4400272;32;20015;-83
2022/05/16 01:25:48;;;;;;;;;;;;;;;18.97;48.69;100115.47;4397783;32;19987;-83
2022/05/16 01:28:16;;;;;;;;;;;;;;;19.09;48.19;100113.59;4383358;32;20053;-83
2022/05/16 01:30:46;;;;;;;;;;;;;;;19.00;48.13;100110.19;4392962;32;19986;-83
2022/05/16 01:33:17;;;;;;;;;;;;;;;18.93;48.36;100119.03;4399841;32;20747;-83
2022/05/16 01:35:44;;;;;;;;;;;;;;;19.03;48.00;100107.50;4400391;32;19970;-83
2022/05/16 01:38:21;;;;;;;;;;;;;;;18.87;48.50;100118.25;4398511;32;20079;-84
2022/05/16 01:40:50;;;;;;;;;;;;;;;18.81;49.06;100124.44;4399196;32;20001;-85
2022/05/16 01:43:17;;;;;;;;;;;;;;;18.70;49.46;100126.31;4399757;32;20648;-83
2022/05/16 01:45:44;;;;;;;;;;;;;;;18.80;48.81;100134.06;4398694;32;20004;-83
2022/05/16 01:48:12;;;;;;;;;;;;;;;18.76;49.30;100126.25;4400158;32;19986;-84
2022/05/16 01:50:39;;;;;;;;;;;;;;;18.73;48.84;100131.53;4399517;32;19984;-83
2022/05/16 01:53:05;;;;;;;;;;;;;;;18.73;49.49;100137.66;4399882;32;20018;-83
2022/05/16 01:55:32;;;;;;;;;;;;;;;18.73;49.65;100131.53;4398907;32;20004;-84
2022/05/16 01:57:59;;;;;;;;;;;;;;;18.79;48.71;100123.56;4398151;32;19982;-83
2022/05/16 02:00:26;;;;;;;;;;;;;;;18.76;49.34;100126.25;4388554;32;19996;-83
2022/05/16 02:02:53;;;;;;;;;;;;;;;18.75;49.42;100127.12;4384658;32;19982;-83
2022/05/16 02:05:21;;;;;;;;;;;;;;;18.89;49.07;100127.84;4384663;32;20017;-83
2022/05/16 02:07:51;;;;;;;;;;;;;;;18.95;48.94;100135.63;4384584;32;20010;-82
2022/05/16 02:10:19;;;;;;;;;;;;;;;18.67;49.69;100134.22;4382685;32;19992;-83
2022/05/16 02:12:46;;;;;;;;;;;;;;;18.83;49.50;100141.03;4384932;32;20050;-84
2022/05/16 02:15:15;;;;;;;;;;;;;;;18.84;49.24;100134.03;4383450;32;20005;-84
2022/05/16 02:17:42;;;;;;;;;;;;;;;18.88;48.65;100135.72;4382252;32;19974;-84
2022/05/16 02:20:10;;;;;;;;;;;;;;;18.92;48.55;100135.66;4384633;32;20789;-83
2022/05/16 02:25:22;;;;;;;;;;;;;;;18.94;48.84;100136.50;4384825;32;19987;-83
2022/05/16 02:27:49;;;;;;;;;;;;;;;18.64;49.76;100142.13;4382642;32;19982;-85
2022/05/16 02:30:17;;;;;;;;;;;;;;;18.72;49.46;100140.25;4366554;32;25769;-83
2022/05/16 02:32:44;;;;;;;;;;;;;;;18.71;48.96;100143.78;4384624;32;20309;-84
2022/05/16 02:35:11;;;;;;;;;;;;;;;18.49;49.98;100144.03;4384427;32;19974;-85
2022/05/16 02:37:37;;;;;;;;;;;;;;;18.67;49.17;100139.47;4384443;32;19994;-83
2022/05/16 02:40:05;;;;;;;;;;;;;;;18.84;49.19;100140.12;4384319;32;20000;-83
2022/05/16 02:42:32;;;;;;;;;;;;;;;18.67;49.69;100142.09;4384771;32;20001;-82
2022/05/16 02:44:58;;;;;;;;;;;;;;;18.49;50.07;100143.16;4384151;32;19991;-83
2022/05/16 02:47:26;;;;;;;;;;;;;;;18.46;50.29;100137.94;4381042;32;20024;-83
2022/05/16 02:49:53;;;;;;;;;;;;;;;18.38;50.41;100140.66;4390191;32;19971;-82
2022/05/16 02:52:19;;;;;;;;;;;;;;;18.50;50.13;100130.00;4384494;32;19990;-83
2022/05/16 02:54:46;;;;;;;;;;;;;;;18.70;49.35;100136.81;4384821;32;19990;-83
2022/05/16 02:57:13;;;;;;;;;;;;;;;18.30;50.57;100137.25;4383940;32;20397;-82
2022/05/16 02:59:40;;;;;;;;;;;;;;;18.46;49.82;100135.31;4381119;32;20284;-83
2022/05/16 03:02:08;;;;;;;;;;;;;;;18.28;50.38;100133.75;4384065;32;20022;-82
2022/05/16 03:04:35;;;;;;;;;;;;;;;18.46;50.07;100133.56;4384156;32;20036;-83
2022/05/16 03:07:05;;;;;;;;;;;;;;;18.36;50.26;100134.56;4395388;32;20354;-83
2022/05/16 03:09:33;;;;;;;;;;;;;;;18.39;50.40;100136.28;4381648;32;20010;-86
2022/05/16 03:12:00;;;;;;;;;;;;;;;18.31;50.64;100138.97;4383720;32;19970;-86
2022/05/16 03:14:27;;;;;;;;;;;;;;;18.35;50.72;100140.69;4384297;32;20283;-84
2022/05/16 03:16:54;;;;;;;;;;;;;;;18.28;50.84;100139.00;4384643;32;19975;-86
2022/05/16 03:19:21;;;;;;;;;;;;;;;18.44;50.20;100130.12;4382784;32;20387;-83
2022/05/16 03:21:48;;;;;;;;;;;;;;;18.29;50.92;100130.28;4382761;32;20046;-83
2022/05/16 03:24:15;;;;;;;;;;;;;;;18.41;51.41;100130.16;4384235;32;20024;-84
2022/05/16 03:26:42;;;;;;;;;;;;;;;18.43;51.32;100130.97;4383892;32;19990;-83
2022/05/16 03:29:13;;;;;;;;;;;;;;;18.32;51.33;100130.25;4385516;32;19993;-83
2022/05/16 03:31:41;;;;;;;;;;;;;;;18.26;51.30;100128.56;4384190;32;19990;-83
2022/05/16 03:34:09;;;;;;;;;;;;;;;18.44;50.65;100135.34;4384004;32;20020;-85
2022/05/16 03:36:36;;;;;;;;;;;;;;;18.51;50.26;100126.53;4384600;32;20817;-84
2022/05/16 03:41:49;;;;;;;;;;;;;;;18.43;50.64;100133.59;4367910;32;20046;-83
2022/05/16 03:44:18;;;;;;;;;;;;;;;18.59;50.49;100139.53;4368238;32;20021;-84
2022/05/16 03:46:45;;;;;;;;;;;;;;;18.57;50.93;100131.72;4337587;32;20036;-84
2022/05/16 03:49:12;;;;;;;;;;;;;;;18.64;50.48;100127.25;4396666;32;20026;-85
2022/05/16 03:51:39;;;;;;;;;;;;;;;18.58;50.66;100130.81;4397478;32;19990;-84
2022/05/16 03:54:06;;;;;;;;;;;;;;;18.74;50.61;100130.66;4398106;32;19986;-83
2022/05/16 03:56:33;;;;;;;;;;;;;;;18.70;50.96;100136.81;4397707;32;20000;-86
2022/05/16 03:59:00;;;;;;;;;;;;;;;18.66;51.46;100140.31;4396783;32;20747;-83
2022/05/16 04:01:27;;;;;;;;;;;;;;;18.63;51.41;100140.38;4384206;32;19998;-83
2022/05/16 04:03:55;;;;;;;;;;;;;;;18.97;51.12;100140.84;4397901;32;20018;-83
2022/05/16 04:06:22;;;;;;;;;;;;;;;18.83;52.19;100142.78;4397726;32;20084;-83
2022/05/16 04:08:49;;;;;;;;;;;;;;;18.94;51.47;100136.50;4397284;32;19974;-84
2022/05/16 04:11:16;;;;;;;;;;;;;;;18.82;52.29;100147.16;4397904;32;20303;-85
2022/05/16 04:13:43;;;;;;;;;;;;;;;18.90;52.29;100149.69;4396330;32;19990;-82
2022/05/16 04:16:10;;;;;;;;;;;;;;;19.07;51.80;100152.94;4376368;32;19995;-83
2022/05/16 04:18:38;;;;;;;;;;;;;;;19.16;51.61;100162.44;4381896;32;20328;-85
2022/05/16 04:21:05;;;;;;;;;;;;;;;19.24;51.68;100161.47;4381839;32;19983;-84
2022/05/16 04:23:32;;;;;;;;;;;;;;;19.32;51.71;100153.47;4379965;32;20758;-88
2022/05/16 04:25:59;;;;;;;;;;;;;;;19.28;52.82;100157.03;4393771;32;20020;-88
2022/05/16 04:28:26;;;;;;;;;;;;;;;19.19;54.26;100163.28;4390667;32;19974;-85
2022/05/16 04:30:53;;;;;;;;;;;;;;;19.33;52.71;100160.44;4398130;32;20706;-86
2022/05/16 04:33:22;;;;;;;;;;;;;;;19.62;52.17;100162.66;4396317;32;19995;-84
2022/05/16 04:35:49;;;;;;;;;;;;;;;19.69;51.92;100155.56;4389466;32;19996;-85
2022/05/16 04:38:16;;;;;;;;;;;;;;;19.72;52.72;100158.16;4369450;32;781811;-89
2022/05/16 04:43:28;;;;;;;;;;;;;;;19.89;51.83;100160.50;4398135;32;19981;-85
2022/05/16 04:45:55;;;;;;;;;;;;;;;19.91;52.06;100159.59;4392108;32;19978;-83
2022/05/16 04:48:22;;;;;;;;;;;;;;;19.77;51.43;100172.06;4383253;32;19983;-83
2022/05/16 04:50:49;;;;;;;;;;;;;;;19.98;50.21;100161.19;4387029;32;19982;-82
2022/05/16 04:53:16;;;;;;;;;;;;;;;20.05;47.07;100158.47;4393173;32;19975;-83
2022/05/16 04:55:43;;;;;;;;;;;;;;;20.04;45.47;100164.59;4391828;32;19990;-85
2022/05/16 04:58:10;;;;;;;;;;;;;;;20.07;43.70;100164.53;4393761;32;19970;-83
2022/05/16 05:00:38;;;;;;;;;;;;;;;20.16;43.40;100164.38;4398332;32;20005;-83
2022/05/16 05:03:05;;;;;;;;;;;;;;;20.07;43.78;100162.81;4400073;32;19985;-83
2022/05/16 05:05:33;;;;;;;;;;;;;;;20.15;40.69;100160.91;4398126;32;20010;-83
2022/05/16 05:08:01;;;;;;;;;;;;;;;20.29;40.84;100162.41;4397598;32;19986;-83
2022/05/16 05:16:05;;;;;;;;;;;;;;;20.33;39.76;100166.72;4387995;32;19982;-83
2022/05/16 05:18:32;;;;;;;;;;;;;;;20.62;39.43;100168.81;4392458;32;19970;-83
2022/05/16 05:20:59;;;;;;;;;;;;;;;20.65;39.59;100168.75;4396135;32;19989;-82
2022/05/16 05:23:25;;;;;;;;;;;;;;;20.80;38.64;100168.44;4400461;32;20373;-84
2022/05/16 05:25:52;;;;;;;;;;;;;;;20.60;40.25;100167.97;4384984;32;20399;-82
2022/05/16 05:28:19;;;;;;;;;;;;;;;20.92;38.29;100166.47;4384962;32;20028;-83
2022/05/16 05:30:48;;;;;;;;;;;;;;;20.90;38.07;100170.00;4383749;32;20021;-82
2022/05/16 05:33:15;;;;;;;;;;;;;;;20.84;37.37;100174.53;4383868;32;20017;-82
2022/05/16 05:35:42;;;;;;;;;;;;;;;20.86;37.30;100168.31;4382618;32;19987;-83
2022/05/16 05:38:09;;;;;;;;;;;;;;;20.73;36.98;100172.09;4383510;32;20077;-83
2022/05/16 05:40:37;;;;;;;;;;;;;;;20.75;36.96;100170.31;4384636;32;19975;-83
2022/05/16 05:43:06;;;;;;;;;;;;;;;20.88;37.01;100169.16;4382635;32;20004;-83
2022/05/16 05:45:33;;;;;;;;;;;;;;;20.92;37.10;100177.84;4381466;32;20332;-84
2022/05/16 05:48:01;;;;;;;;;;;;;;;20.87;37.11;100170.06;4382859;32;19982;-83
2022/05/16 05:50:27;;;;;;;;;;;;;;;21.20;36.54;100172.00;4393590;32;20004;-82
2022/05/16 05:52:54;;;;;;;;;;;;;;;21.09;36.84;100170.47;4384316;32;19994;-83
2022/05/16 05:55:21;;;;;;;;;;;;;;;21.53;36.03;100173.00;4383777;32;19990;-82
2022/05/16 05:57:48;;;;;;;;;;;;;;;21.50;36.54;100181.00;4384182;32;19974;-81
2022/05/16 06:00:15;;;;;;;;;;;;;;;21.62;35.52;100175.44;4379872;32;20335;-81
2022/05/16 06:02:43;;;;;;;;;;;;;;;21.86;35.16;100183.63;4382921;32;20426;-82
2022/05/16 06:05:10;;;;;;;;;;;;;;;21.83;35.77;100179.34;4383789;32;20020;-82
2022/05/16 06:07:37;;;;;;;;;;;;;;;22.16;35.04;100182.91;4383764;32;19992;-83
2022/05/16 06:10:05;;;;;;;;;;;;;;;22.36;32.89;100181.50;4384596;32;20006;-81
2022/05/16 06:12:32;;;;;;;;;;;;;;;22.50;33.06;100188.16;4377898;32;20012;-82
2022/05/16 06:14:59;;;;;;;;;;;;;;;22.57;33.27;100191.47;4375819;32;20018;-82
2022/05/16 06:17:26;;;;;;;;;;;;;;;22.59;33.25;100187.03;4380612;32;19986;-82
2022/05/16 06:19:53;;;;;;;;;;;;;;;22.69;33.19;100183.22;4381446;32;20288;-82
2022/05/16 06:22:19;;;;;;;;;;;;;;;22.88;31.81;100177.44;4381000;32;20619;-82
2022/05/16 06:27:32;;;;;;;;;;;;;;;22.94;32.55;100177.25;4381501;32;20084;-82
2022/05/16 06:29:59;;;;;;;;;;;;;;;23.18;32.34;100173.88;4382490;32;20256;-82
2022/05/16 06:32:26;;;;;;;;;;;;;;;23.54;32.11;100184.22;4382562;32;19978;-81
2022/05/16 06:34:53;;;;;;;;;;;;;;;23.86;30.53;100185.00;4381999;32;20345;-82
2022/05/16 06:37:20;;;;;;;;;;;;;;;24.06;30.89;100182.56;4381484;32;20478;-80
2022/05/16 06:39:46;;;;;;;;;;;;;;;23.96;30.47;100181.12;4381424;32;19987;-81
2022/05/16 06:42:13;;;;;;;;;;;;;;;24.54;28.97;100168.56;4380970;32;19998;-82
2022/05/16 06:44:41;;;;;;;;;;;;;;;24.98;29.13;100174.00;4381193;32;20001;-83
2022/05/16 06:47:08;;;;;;;;;;;;;;;25.45;27.51;100171.28;4382705;32;20005;-81
2022/05/16 06:49:34;;;;;;;;;;;;;;;25.28;28.04;100176.41;4381607;32;20065;-82
2022/05/16 06:52:02;;;;;;;;;;;;;;;25.42;28.52;100174.06;4382311;32;19993;-82
2022/05/16 06:54:33;;;;;;;;;;;;;;;25.65;27.74;100177.56;4381898;32;19991;-82
2022/05/16 06:57:00;;;;;;;;;;;;;;;25.70;28.35;100183.56;4381452;32;20331;-81
2022/05/16 06:59:27;;;;;;;;;;;;;;;25.84;28.48;100180.38;4382572;32;20032;-82
2022/05/16 07:01:54;;;;;;;;;;;;;;;26.04;28.23;100187.47;4381670;32;19986;-82
2022/05/16 07:04:21;;;;;;;;;;;;;;;25.87;29.55;100181.09;4381413;32;19982;-83
2022/05/16 07:06:48;;;;;;;;;;;;;;;26.14;27.77;100183.53;4385032;32;20975;-82
2022/05/16 07:09:15;;;;;;;;;;;;;;;26.40;27.35;100185.91;4381896;32;19986;-82
2022/05/16 07:11:42;;;;;;;;;;;;;;;26.31;28.90;100186.31;4384741;32;20429;-82
2022/05/16 07:14:09;;;;;;;;;;;;;;;26.63;28.21;100184.06;4387950;32;19994;-82
2022/05/16 07:16:36;;;;;;;;;;;;;;;27.00;25.97;100191.22;4381894;32;19982;-82
2022/05/16 07:19:03;;;;;;;;;;;;;;;27.01;26.59;100187.62;4387565;32;19992;-82
2022/05/16 07:21:30;;;;;;;;;;;;;;;27.16;26.81;100188.75;4383530;32;20032;-82
2022/05/16 07:23:57;;;;;;;;;;;;;;;27.39;27.33;100192.13;4384032;32;20028;-81
2022/05/16 07:29:09;;;;;;;;;;;;;;;27.54;26.46;100191.38;4375864;32;19995;-82
2022/05/16 07:31:37;;;;;;;;;;;;;;;27.73;25.49;100192.19;4367860;32;19975;-82
2022/05/16 07:34:04;;;;;;;;;;;;;;;27.69;25.45;100190.59;4367324;32;20037;-82
2022/05/16 07:36:31;;;;;;;;;;;;;;;28.07;25.83;100185.22;4381411;32;20030;-83
2022/05/16 07:38:57;;;;;;;;;;;;;;;27.81;25.09;100190.03;4392312;32;20956;-80
2022/05/16 07:41:24;;;;;;;;;;;;;;;27.98;25.62;100185.66;4382498;32;20489;-82
2022/05/16 07:43:52;;;;;;;;;;;;;;;27.77;25.13;100183.16;4381544;32;20005;-83
2022/05/16 07:46:19;;;;;;;;;;;;;;;27.93;25.42;100193.03;4372979;32;20403;-82
2022/05/16 07:48:46;;;;;;;;;;;;;;;28.22;25.08;100184.44;4369683;32;19999;-82
2022/05/16 07:51:14;;;;;;;;;;;;;;;28.39;25.79;100186.22;4372301;32;20003;-82
2022/05/16 07:53:41;;;;;;;;;;;;;;;27.98;25.54;100196.31;4374225;32;20032;-83
2022/05/16 07:56:09;;;;;;;;;;;;;;;28.37;24.30;100193.44;4390618;32;20443;-82
2022/05/16 07:58:36;;;;;;;;;;;;;;;28.41;26.51;100194.16;4379215;32;20343;-82
2022/05/16 08:01:03;;;;;;;;;;;;;;;28.96;25.01;100191.22;4391435;32;19982;-83
2022/05/16 08:03:30;;;;;;;;;;;;;;;29.03;22.81;100189.94;4389015;32;20043;-83
2022/05/16 08:05:57;;;;;;;;;;;;;;;28.95;23.54;100189.50;4389672;32;20771;-83
2022/05/16 08:11:11;;;;;;;;;;;;;;;28.92;23.90;100195.00;4381335;32;19986;-82
2022/05/16 08:13:38;;;;;;;;;;;;;;;28.67;23.52;100196.31;4381049;32;20053;-83
2022/05/16 08:16:05;;;;;;;;;;;;;;;28.94;23.74;100195.75;4402334;32;20021;-83
2022/05/16 08:18:32;;;;;;;;;;;;;;;29.18;22.98;100191.78;4392625;32;20025;-82
2022/05/16 08:20:59;;;;;;;;;;;;;;;29.06;23.02;100187.13;4404201;32;20005;-82
2022/05/16 08:23:28;;;;;;;;;;;;;;;29.03;23.42;100192.63;4396430;32;19985;-82
2022/05/16 08:25:55;;;;;;;;;;;;;;;29.14;23.77;100184.91;4389435;32;19990;-82
2022/05/16 08:28:22;;;;;;;;;;;;;;;29.10;24.65;100183.37;4392993;32;19990;-81
2022/05/16 08:30:50;;;;;;;;;;;;;;;28.94;25.62;100187.75;4390515;32;19990;-81
2022/05/16 08:33:17;;;;;;;;;;;;;;;29.29;23.37;100182.31;4388955;32;19996;-80
2022/05/16 08:35:44;;;;;;;;;;;;;;;29.53;23.00;100183.59;4396984;32;19978;-81
2022/05/16 08:41:02;;;;;;;;;;;;;;;29.89;23.44;100196.66;4381729;32;20105;-81
2022/05/16 08:43:35;;;;;;;;;;;;;;;29.73;22.88;100186.97;4398124;32;20009;-81
2022/05/16 08:46:04;;;;;;;;;;;;;;;29.85;22.16;100189.78;4399939;32;19978;-82
2022/05/16 08:48:34;;;;;;;;;;;;;;;29.48;24.97;100183.00;4398396;32;20354;-82
2022/05/16 08:51:11;;;;;;;;;;;;;;;30.06;22.28;100190.34;4398889;32;20054;-81
2022/05/16 08:53:49;;;;;;;;;;;;;;;29.87;22.01;100184.38;4398061;32;19992;-82
2022/05/16 08:56:22;;;;;;;;;;;;;;;29.73;23.98;100184.28;4392090;32;20041;-81
2022/05/16 08:58:51;;;;;;;;;;;;;;;30.09;23.07;100190.16;4398417;32;19983;-82
2022/05/16 09:01:19;;;;;;;;;;;;;;;30.30;21.78;100189.84;4399977;32;19970;-81
2022/05/16 09:04:05;;;;;;;;;;;;;;;30.13;22.58;100191.69;4400054;32;19982;-81
2022/05/16 09:06:35;;;;;;;;;;;;;;;30.30;22.61;100187.19;4399543;32;20036;-81
2022/05/16 09:09:16;;;;;;;;;;;;;;;30.80;22.27;100191.28;4399931;32;20369;-82
2022/05/16 09:11:50;;;;;;;;;;;;;;;30.30;22.97;100197.84;4400688;32;19982;-82
2022/05/16 09:14:32;;;;;;;;;;;;;;;29.90;23.49;100197.53;4400377;32;19977;-83
2022/05/16 09:17:00;;;;;;;;;;;;;;;29.79;24.08;100186.63;4399815;32;20894;-82
2022/05/16 09:19:33;;;;;;;;;;;;;;;29.56;25.34;100186.09;4399418;32;19990;-81
2022/05/16 09:22:03;;;;;;;;;;;;;;;29.26;24.32;100182.50;4400196;32;19978;-82
2022/05/16 09:24:35;;;;;;;;;;;;;;;30.09;22.33;100179.47;4400286;32;19982;-81
2022/05/16 09:27:07;;;;;;;;;;;;;;;30.25;23.53;100178.56;4398856;32;19971;-81
2022/05/16 09:29:39;;;;;;;;;;;;;;;30.65;23.61;100177.00;4400574;32;19993;-81
2022/05/16 09:32:11;;;;;;;;;;;;;;;30.19;23.35;100165.56;4399621;32;20032;-82
2022/05/16 09:34:39;;;;;;;;;;;;;;;30.32;23.11;100169.25;4400240;32;20521;-82
2022/05/16 09:37:06;;;;;;;;;;;;;;;30.46;23.84;100166.59;4399477;32;20464;-82
2022/05/16 09:39:35;;;;;;;;;;;;;;;30.74;22.18;100165.75;4399605;32;20791;-82
2022/05/16 09:42:05;;;;;;;;;;;;;;;30.68;24.09;100162.59;4398157;32;19994;-82
2022/05/16 09:44:51;;;;;;;;;;;;;;;30.83;21.67;100164.34;4399290;32;20020;-82
2022/05/16 09:47:18;;;;;;;;;;;;;;;31.25;21.13;100157.22;4400160;32;19989;-82
2022/05/16 09:50:04;;;;;;;;;;;;;;;31.04;23.02;100160.28;4399936;32;19979;-81
2022/05/16 09:52:42;;;;;;;;;;;;;;;31.36;21.17;100149.34;4395768;32;20012;-82
2022/05/16 09:55:10;;;;;;;;;;;;;;;31.20;21.42;100157.47;4399402;32;19983;-82
2022/05/16 09:57:39;;;;;;;;;;;;;;;31.65;21.67;100147.44;4398555;32;20010;-82
2022/05/16 10:00:24;;;;;;;;;;;;;;;31.78;21.22;100155.53;4399535;32;19982;-82
2022/05/16 10:03:13;;;;;;;;;;;;;;;31.28;20.98;100148.97;4398500;32;19985;-82
2022/05/16 10:05:47;;;;;;;;;;;;;;;31.34;23.15;100142.41;4398533;32;19986;-82
2022/05/16 10:08:23;;;;;;;;;;;;;;;31.60;20.87;100143.38;4395772;32;19966;-81
2022/05/16 10:10:50;;;;;;;;;;;;;;;30.97;21.52;100140.25;4395688;32;20031;-82
2022/05/16 10:13:17;;;;;;;;;;;;;;;30.94;21.33;100135.09;4399940;32;19994;-81
2022/05/16 10:15:44;;;;;;;;;;;;;;;30.92;22.15;100131.69;4398384;32;19978;-82
2022/05/16 10:18:13;;;;;;;;;;;;;;;30.99;21.20;100132.16;4397051;32;20375;-81
2022/05/16 10:20:42;;;;;;;;;;;;;;;30.45;22.44;100127.47;4386103;32;19998;-81
2022/05/16 10:23:10;;;;;;;;;;;;;;;31.06;22.44;100127.25;4398699;32;20069;-81
2022/05/16 10:25:40;;;;;;;;;;;;;;;31.23;22.45;100124.34;4398546;32;19992;-82
2022/05/16 10:28:12;;;;;;;;;;;;;;;31.19;22.36;100128.19;4398828;32;20347;-82
2022/05/16 10:33:25;;;;;;;;;;;;;;;31.01;22.13;100128.37;4399277;32;19970;-81
2022/05/16 10:36:03;;;;;;;;;;;;;;;30.91;21.93;100135.28;4397906;32;19994;-82
2022/05/16 10:38:36;;;;;;;;;;;;;;;31.15;21.85;100126.66;4392393;32;19990;-81
2022/05/16 10:41:05;;;;;;;;;;;;;;;30.55;23.16;100128.63;4407038;32;20047;-81
2022/05/16 10:43:36;;;;;;;;;;;;;;;30.61;22.01;100126.53;4397744;32;20002;-81
2022/05/16 10:46:18;;;;;;;;;;;;;;;30.14;22.38;100128.44;4398619;32;19998;-81
2022/05/16 10:49:11;;;;;;;;;;;;;;;29.79;22.92;100127.91;4398634;32;20322;-81
2022/05/16 10:52:16;;;;;;;;;;;;;;;30.06;24.51;100134.28;4399105;32;20020;-81
2022/05/16 10:54:44;;;;;;;;;;;;;;;30.20;25.17;100121.91;4351502;32;20720;-81
2022/05/16 10:57:19;;;;;;;;;;;;;;;29.97;23.75;100115.28;4350642;32;20010;-84
2022/05/16 10:59:52;;;;;;;;;;;;;;;30.05;22.77;100113.84;4377604;32;19993;-86
2022/05/16 11:02:23;;;;;;;;;;;;;;;30.50;23.02;100112.00;4398577;32;19994;-81
2022/05/16 11:04:56;;;;;;;;;;;;;;;30.64;23.39;100110.31;4397881;32;19986;-83
2022/05/16 11:07:35;;;;;;;;;;;;;;;30.06;22.40;100109.38;4397652;32;19996;-82
2022/05/16 11:10:01;;;;;;;;;;;;;;;30.16;25.19;100104.34;4399668;32;19996;-81
2022/05/16 11:12:49;;;;;;;;;;;;;;;30.52;22.66;100107.44;4398829;32;19978;-82
2022/05/16 11:15:16;;;;;;;;;;;;;;;30.80;22.60;100103.06;4375151;32;19978;-81
2022/05/16 11:17:46;;;;;;;;;;;;;;;31.19;22.93;100098.75;4398790;32;20050;-82
2022/05/16 11:20:37;;;;;;;;;;;;;;;31.36;22.98;100103.88;4397806;32;19979;-82
2022/05/16 11:23:10;;;;;;;;;;;;;;;31.58;22.34;100105.13;4398403;32;20025;-81
2022/05/16 11:25:46;;;;;;;;;;;;;;;31.36;23.27;100103.88;4399736;32;19987;-82
2022/05/16 11:28:16;;;;;;;;;;;;;;;31.53;22.30;100088.53;4399760;32;20035;-82
2022/05/16 11:30:51;;;;;;;;;;;;;;;31.72;20.99;100089.00;4398556;32;20017;-82
2022/05/16 11:33:22;;;;;;;;;;;;;;;31.65;20.80;100093.03;4398089;32;20781;-81
2022/05/16 11:35:49;;;;;;;;;;;;;;;31.93;22.52;100075.97;4399450;32;20338;-81
2022/05/16 11:38:16;;;;;;;;;;;;;;;31.87;21.42;100071.88;4399654;32;20096;-83
2022/05/16 11:40:50;;;;;;;;;;;;;;;32.09;21.58;100075.78;4399271;32;20006;-81
2022/05/16 11:43:24;;;;;;;;;;;;;;;31.89;20.42;100070.00;4397899;32;20002;-81
2022/05/16 11:46:11;;;;;;;;;;;;;;;31.46;21.26;100072.00;4398978;32;19982;-81
2022/05/16 11:48:49;;;;;;;;;;;;;;;31.73;21.31;100062.12;4399363;32;20343;-81
2022/05/16 11:51:55;;;;;;;;;;;;;;;31.26;20.76;100065.28;4399305;32;20016;-81
2022/05/16 11:54:24;;;;;;;;;;;;;;;31.58;21.64;100048.91;4399089;32;19992;-82
2022/05/16 12:02:30;;;;;;;;;;;;;;;31.92;22.50;100052.84;4399059;32;19986;-81
2022/05/16 12:05:00;;;;;;;;;;;;;;;31.69;23.49;100052.59;4399221;32;19985;-82
2022/05/16 12:07:32;;;;;;;;;;;;;;;31.52;23.48;100049.34;4399137;32;20355;-81
2022/05/16 12:10:19;;;;;;;;;;;;;;;31.41;24.05;100048.25;4397458;32;20034;-81
2022/05/16 12:12:47;;;;;;;;;;;;;;;31.28;24.55;100047.31;4397994;32;19989;-81
2022/05/16 12:15:17;;;;;;;;;;;;;;;30.96;24.67;100052.97;4397554;32;20001;-81
2022/05/16 12:17:59;;;;;;;;;;;;;;;30.18;23.20;100033.00;4406382;32;19982;-81
2022/05/16 12:20:35;;;;;;;;;;;;;;;30.81;22.33;100032.59;4399819;32;19997;-81
2022/05/16 12:23:03;;;;;;;;;;;;;;;30.93;25.18;100039.81;4400033;32;19978;-81
2022/05/16 12:25:39;;;;;;;;;;;;;;;30.90;21.95;100037.34;4400661;32;20032;-82
2022/05/16 12:28:12;;;;;;;;;;;;;;;30.96;24.97;100026.25;4096473;32;10000172;-82
2022/05/16 12:30:59;;;;;;;;;;;;;;;30.52;24.60;100021.94;4399841;32;20020;-82
2022/05/16 12:33:29;;;;;;;;;;;;;;;30.23;23.70;100026.44;4399920;32;19978;-82
2022/05/16 12:35:56;;;;;;;;;;;;;;;30.10;24.71;100015.62;4399898;32;19973;-82
2022/05/16 12:38:23;;;;;;;;;;;;;;;30.42;23.48;100004.78;4373944;32;19978;-82
2022/05/16 12:40:50;;;;;;;;;;;;;;;29.34;26.11;100004.25;4402328;32;20017;-82
2022/05/16 12:43:42;;;;;;;;;;;;;;;29.23;26.23;99998.66;4400395;32;20023;-83
2022/05/16 12:46:09;;;;;;;;;;;;;;;29.39;25.80;100002.19;4399818;32;19992;-83
2022/05/16 12:48:55;;;;;;;;;;;;;;;28.95;26.36;99994.94;4399620;32;20034;-83
2022/05/16 12:51:31;;;;;;;;;;;;;;;29.75;25.55;99982.25;4395836;32;20078;-83
2022/05/16 12:54:07;;;;;;;;;;;;;;;30.28;24.13;99975.41;4391566;32;19990;-83
2022/05/16 12:56:34;;;;;;;;;;;;;;;30.47;24.76;99970.63;4397887;32;19986;-83
2022/05/16 12:59:09;;;;;;;;;;;;;;;29.78;24.34;99966.91;4395498;32;20009;-82
2022/05/16 13:01:36;;;;;;;;;;;;;;;29.84;24.90;99971.03;4410550;32;20005;-83
2022/05/16 13:04:12;;;;;;;;;;;;;;;30.12;25.18;99970.13;4394488;32;19978;-83
2022/05/16 13:06:50;;;;;;;;;;;;;;;30.41;24.31;99955.00;4390063;32;20795;-83
2022/05/16 13:09:30;;;;;;;;;;;;;;;31.11;23.12;99954.84;4374956;32;19986;-83
2022/05/16 13:11:57;;;;;;;;;;;;;;;31.02;25.28;99955.47;4381335;32;19986;-82
2022/05/16 13:14:40;;;;;;;;;;;;;;;30.61;26.52;99961.69;4380111;32;20689;-82
2022/05/16 13:17:08;;;;;;;;;;;;;;;30.21;25.17;99952.72;4388343;32;20009;-82
2022/05/16 13:19:40;;;;;;;;;;;;;;;30.91;23.74;99952.66;4382098;32;19979;-81
2022/05/16 13:22:17;;;;;;;;;;;;;;;31.17;24.01;99949.06;4378581;32;20316;-81
2022/05/16 13:24:45;;;;;;;;;;;;;;;30.73;25.23;99952.03;4375986;32;20017;-81
2022/05/16 13:30:06;;;;;;;;;;;;;;;30.83;23.75;99950.50;4381717;32;20001;-81